Time;durP1;ratioP1;P1;durP2;ratioP2;P2;SDS_P1;SDS_P2;PMS_P1;PMS_P2;Temp;Humidity;BMP_temperature;BMP_pressure;BME280_temperature;BME280_humidity;BME280_pressure;Samples;Min_cycle;Max_cycle;Signal;HPM_P1;HPM_P2
2021/05/26 00:02:01;;;;;;;13.93;11.45;;;16.50;62.10;;;;;;4791216;29;20587;-92
2021/05/26 00:04:28;;;;;;;12.93;11.55;;;16.40;62.10;;;;;;4791637;29;20060;-92
2021/05/26 00:06:54;;;;;;;16.15;11.30;;;16.40;62.00;;;;;;4821655;29;20112;-92
2021/05/26 00:09:20;;;;;;;12.23;11.10;;;16.40;62.00;;;;;;4807920;29;20037;-92
2021/05/26 00:11:47;;;;;;;14.98;12.05;;;16.40;62.10;;;;;;4791352;29;20458;-93
2021/05/26 00:14:13;;;;;;;12.93;11.63;;;16.40;62.10;;;;;;4821521;29;20049;-91
2021/05/26 00:16:39;;;;;;;13.57;12.25;;;16.40;62.00;;;;;;4821213;29;20066;-91
2021/05/26 00:19:07;;;;;;;10.43;9.38;;;16.40;62.10;;;;;;4790488;29;20056;-92
2021/05/26 00:21:34;;;;;;;11.23;9.50;;;16.40;62.10;;;;;;4807088;29;20062;-90
2021/05/26 00:24:00;;;;;;;10.90;8.23;;;16.40;62.30;;;;;;4792436;29;20041;-93
2021/05/26 00:26:27;;;;;;;9.07;8.15;;;16.30;62.30;;;;;;4792095;29;20045;-92
2021/05/26 00:28:55;;;;;;;10.73;8.07;;;16.40;62.40;;;;;;4792423;29;20045;-90
2021/05/26 00:31:23;;;;;;;8.13;6.90;;;16.40;62.40;;;;;;4808008;29;20075;-91
2021/05/26 00:33:50;;;;;;;12.98;7.13;;;16.40;62.50;;;;;;4806764;29;20452;-92
2021/05/26 00:36:16;;;;;;;7.53;6.82;;;16.40;62.50;;;;;;4791391;29;20093;-91
2021/05/26 00:38:42;;;;;;;8.90;7.20;;;16.40;62.60;;;;;;4805942;29;20037;-92
2021/05/26 00:41:09;;;;;;;9.50;6.95;;;16.40;62.40;;;;;;4792028;29;20548;-92
2021/05/26 00:43:36;;;;;;;11.43;7.15;;;16.40;62.40;;;;;;4805489;29;20049;-90
2021/05/26 00:46:03;;;;;;;9.65;6.63;;;16.40;62.40;;;;;;4806270;29;20057;-91
2021/05/26 00:48:29;;;;;;;10.93;7.35;;;16.40;62.50;;;;;;4820634;29;20056;-91
2021/05/26 00:50:55;;;;;;;7.80;7.03;;;16.40;62.50;;;;;;4806772;29;20489;-90
2021/05/26 00:53:24;;;;;;;7.10;6.35;;;16.40;62.40;;;;;;4805780;29;20037;-91
2021/05/26 00:55:50;;;;;;;7.43;6.72;;;16.40;62.40;;;;;;4805964;29;20073;-91
2021/05/26 00:58:16;;;;;;;9.38;6.60;;;16.40;62.40;;;;;;4820448;29;20037;-92
2021/05/26 01:00:43;;;;;;;6.97;6.35;;;16.40;62.40;;;;;;4805199;29;20049;-91
2021/05/26 01:03:09;;;;;;;8.07;6.68;;;16.40;62.30;;;;;;4820612;29;20056;-92
2021/05/26 01:05:36;;;;;;;7.82;5.88;;;16.40;62.40;;;;;;4790958;29;20069;-92
2021/05/26 01:08:02;;;;;;;6.85;6.20;;;16.50;62.40;;;;;;4806795;29;20075;-90
2021/05/26 01:10:30;;;;;;;6.85;5.70;;;16.50;62.30;;;;;;4806528;29;20399;-93
2021/05/26 01:12:56;;;;;;;8.23;6.18;;;16.50;62.40;;;;;;4791708;29;20053;-91
2021/05/26 01:15:23;;;;;;;8.13;6.00;;;16.60;62.40;;;;;;4792606;29;20073;-91
2021/05/26 01:17:49;;;;;;;6.00;5.50;;;16.60;62.40;;;;;;4794371;29;20041;-90
2021/05/26 01:20:27;;;;;;;6.90;6.20;;;16.60;62.30;;;;;;4795609;29;20041;-90
2021/05/26 01:22:54;;;;;;;6.45;5.68;;;16.60;62.20;;;;;;4800104;29;20049;-90
2021/05/26 01:25:20;;;;;;;6.00;5.38;;;16.70;62.20;;;;;;4812452;29;20537;-91
2021/05/26 01:27:47;;;;;;;6.45;5.18;;;16.70;62.20;;;;;;4792485;29;20038;-92
2021/05/26 01:30:14;;;;;;;;;;;16.80;62.20;;;;;;4791917;29;20402;-89
2021/05/26 01:32:48;;;;;;;5.60;5.00;;;16.80;62.10;;;;;;4790687;29;19928;-92
2021/05/26 01:35:16;;;;;;;8.63;5.22;;;16.90;62.00;;;;;;4820480;29;20049;-92
2021/05/26 01:37:44;;;;;;;4.80;4.40;;;16.90;61.90;;;;;;4806403;29;20037;-90
2021/05/26 01:40:12;;;;;;;5.88;5.05;;;16.90;61.90;;;;;;4792185;29;20064;-91
2021/05/26 01:42:39;;;;;;;5.78;4.70;;;17.00;61.90;;;;;;4815238;29;20045;-92
2021/05/26 01:45:09;;;;;;;7.05;4.55;;;17.10;61.80;;;;;;4799635;29;20053;-92
2021/05/26 01:47:35;;;;;;;5.63;5.00;;;17.10;61.70;;;;;;4804985;29;20554;-90
2021/05/26 01:50:03;;;;;;;6.88;4.70;;;17.20;61.60;;;;;;4790773;29;20037;-92
2021/05/26 01:52:29;;;;;;;9.13;4.95;;;17.20;61.60;;;;;;4819703;29;20100;-93
2021/05/26 01:54:56;;;;;;;5.20;4.70;;;17.20;61.50;;;;;;4790839;29;20045;-91
2021/05/26 01:57:22;;;;;;;6.85;5.00;;;17.30;61.40;;;;;;4804304;29;20056;-90
2021/05/26 01:59:48;;;;;;;8.63;7.72;;;17.40;61.30;;;;;;4820093;29;20046;-92
2021/05/26 02:02:15;;;;;;;7.20;6.50;;;17.50;61.10;;;;;;4789299;29;20048;-91
2021/05/26 02:04:41;;;;;;;7.18;4.93;;;17.70;61.50;;;;;;4805801;29;20037;-92
2021/05/26 02:07:11;;;;;;;5.20;4.00;;;18.00;61.60;;;;;;4807313;29;20105;-92
2021/05/26 02:09:38;;;;;;;4.68;4.28;;;18.50;61.20;;;;;;4808278;29;20145;-92
2021/05/26 02:12:24;;;;;;;5.28;4.00;;;18.90;60.80;;;;;;4791001;29;20045;-92
2021/05/26 02:14:55;;;;;;;4.78;4.07;;;19.40;60.10;;;;;;4792818;29;20473;-92
2021/05/26 02:17:21;;;;;;;4.78;4.25;;;20.00;58.70;;;;;;4789872;29;20065;-92
2021/05/26 02:19:49;;;;;;;4.60;3.70;;;20.40;57.70;;;;;;4806067;29;20033;-93
2021/05/26 02:22:16;;;;;;;7.28;3.90;;;20.80;56.30;;;;;;4790617;29;20045;-92
2021/05/26 02:24:42;;;;;;;8.95;3.80;;;21.20;54.70;;;;;;4809818;29;20100;-91
2021/05/26 02:27:13;;;;;;;5.93;3.40;;;21.60;53.30;;;;;;4795325;29;20045;-94
2021/05/26 02:29:39;;;;;;;4.90;3.13;;;22.00;52.50;;;;;;4793932;29;20037;-93
2021/05/26 02:32:06;;;;;;;6.13;3.50;;;22.40;51.10;;;;;;4794045;29;20061;-93
2021/05/26 02:34:33;;;;;;;5.55;3.50;;;22.80;49.80;;;;;;4809067;29;20473;-94
2021/05/26 02:36:59;;;;;;;6.30;3.45;;;23.00;48.40;;;;;;4823713;29;20034;-92
2021/05/26 02:39:26;;;;;;;3.10;2.90;;;23.20;47.40;;;;;;4813283;29;20033;-93
2021/05/26 02:41:52;;;;;;;3.60;3.13;;;23.30;46.40;;;;;;4811666;29;20021;-93
2021/05/26 02:44:18;;;;;;;;;;;23.20;45.80;;;;;;4840794;29;20046;-94
2021/05/26 02:46:45;;;;;;;6.30;3.05;;;23.00;46.00;;;;;;4798975;29;19944;-93
2021/05/26 02:49:12;;;;;;;4.22;3.10;;;22.80;45.60;;;;;;4794543;29;20130;-93
2021/05/26 02:51:39;;;;;;;4.80;2.83;;;22.50;45.80;;;;;;4826167;29;20041;-95
2021/05/26 02:54:06;;;;;;;6.38;2.60;;;22.20;46.00;;;;;;4825553;29;20045;-92
2021/05/26 02:56:33;;;;;;;2.75;2.55;;;22.00;46.50;;;;;;4805562;29;20108;-93
2021/05/26 02:59:00;;;;;;;4.97;2.90;;;21.70;47.00;;;;;;4820755;29;20049;-92
2021/05/26 03:01:26;;;;;;;4.28;2.60;;;21.60;47.60;;;;;;4816734;29;20069;-94
2021/05/26 03:03:52;;;;;;;5.75;2.60;;;21.30;48.10;;;;;;4795099;29;20061;-94
2021/05/26 03:06:19;;;;;;;4.47;2.38;;;21.20;48.50;;;;;;4805966;29;20045;-93
2021/05/26 03:08:45;;;;;;;7.78;3.10;;;21.10;48.80;;;;;;4791523;29;20051;-95
2021/05/26 03:11:12;;;;;;;4.35;2.50;;;21.00;49.10;;;;;;4809438;29;20064;-94
2021/05/26 03:13:38;;;;;;;4.50;2.53;;;20.90;49.00;;;;;;4807870;29;20477;-95
2021/05/26 03:16:13;;;;;;;4.90;2.40;;;20.90;49.20;;;;;;4830092;29;20068;-95
2021/05/26 03:24:38;;;;;;;2.50;2.30;;;20.80;49.50;;;;;;3610393;23;20136;-95
2021/05/26 03:27:05;;;;;;;5.38;2.33;;;20.80;49.60;;;;;;4817295;29;20124;-95
2021/05/26 03:29:37;;;;;;;2.55;2.25;;;20.90;50.00;;;;;;4818774;29;20046;-93
2021/05/26 03:32:10;;;;;;;3.00;2.40;;;20.90;49.60;;;;;;4843711;24;21323;-96
2021/05/26 03:34:38;;;;;;;4.45;2.50;;;21.00;49.30;;;;;;4806261;29;20410;-95
2021/05/26 03:37:08;;;;;;;4.10;3.10;;;21.10;49.00;;;;;;4814885;29;20033;-91
2021/05/26 03:42:20;;;;;;;2.70;2.30;;;21.20;48.30;;;;;;4875931;23;20222;-96
2021/05/26 03:44:50;;;;;;;5.68;2.20;;;21.30;48.00;;;;;;4988721;24;20041;-94
2021/05/26 04:03:17;;;;;;;2.75;1.45;;;21.70;45.30;;;;;;1536354;23;20240;-93
2021/05/26 04:05:48;;;;;;;3.65;1.67;;;21.70;44.20;;;;;;4819564;29;20128;-94
2021/05/26 04:08:16;;;;;;;25.00;3.10;;;21.70;44.10;;;;;;4804147;29;20030;-95
2021/05/26 04:10:42;;;;;;;5.55;1.92;;;21.80;44.10;;;;;;4789209;29;20045;-95
2021/05/26 04:13:10;;;;;;;2.38;1.58;;;22.00;44.10;;;;;;4795783;29;20073;-95
2021/05/26 04:15:36;;;;;;;;;;;22.00;43.70;;;;;;4804359;29;20066;-89
2021/05/26 04:18:05;;;;;;;;;;;22.00;43.70;;;;;;4832635;29;19932;-93
2021/05/26 04:20:33;;;;;;;48.30;19.27;;;22.10;43.50;;;;;;4833974;29;19932;-94
2021/05/26 04:22:59;;;;;;;38.70;25.20;;;22.20;43.50;;;;;;4803534;29;20030;-94
2021/05/26 04:25:26;;;;;;;;;;;22.20;43.80;;;;;;4802928;29;20030;-94
2021/05/26 04:27:52;;;;;;;5.78;2.72;;;22.40;44.00;;;;;;4815333;29;19928;-94
2021/05/26 04:30:19;;;;;;;27.80;16.48;;;22.50;43.60;;;;;;4792930;29;20049;-93
2021/05/26 04:32:46;;;;;;;41.67;32.80;;;22.60;43.00;;;;;;4790400;29;20063;-95
2021/05/26 04:35:12;;;;;;;12.25;9.02;;;22.80;42.80;;;;;;4790364;29;20046;-96
2021/05/26 04:37:39;;;;;;;72.45;58.10;;;22.90;42.50;;;;;;4807378;29;20056;-95
2021/05/26 04:40:06;;;;;;;51.15;42.72;;;23.00;41.70;;;;;;4776471;29;20083;-94
2021/05/26 04:42:32;;;;;;;20.40;15.60;;;23.10;41.90;;;;;;4805005;29;20037;-93
2021/05/26 04:44:58;;;;;;;25.65;18.42;;;23.50;41.80;;;;;;4788013;29;20042;-92
2021/05/26 04:47:25;;;;;;;22.92;20.30;;;24.30;41.00;;;;;;4803984;29;20065;-95
2021/05/26 04:49:51;;;;;;;9.00;6.97;;;25.60;39.00;;;;;;4803777;29;20048;-93
2021/05/26 04:52:18;;;;;;;18.13;13.63;;;27.30;37.20;;;;;;4804644;29;20065;-93
2021/05/26 04:54:44;;;;;;;27.13;21.42;;;29.10;34.40;;;;;;4802073;29;20049;-92
2021/05/26 04:57:10;;;;;;;6.30;3.17;;;30.70;30.60;;;;;;4772170;29;20409;-90
2021/05/26 04:59:36;;;;;;;14.23;6.13;;;32.00;28.50;;;;;;4785518;29;20060;-90
2021/05/26 05:02:04;;;;;;;14.82;9.90;;;33.10;26.40;;;;;;4801422;29;20033;-91
2021/05/26 05:04:31;;;;;;;17.33;13.70;;;34.10;24.10;;;;;;4803230;29;20046;-93
2021/05/26 05:06:57;;;;;;;18.95;13.88;;;34.80;23.10;;;;;;4802606;29;20058;-91
2021/05/26 05:09:26;;;;;;;24.55;18.30;;;35.40;22.00;;;;;;4777962;29;20096;-90
2021/05/26 05:11:53;;;;;;;17.05;9.15;;;36.20;21.10;;;;;;4774319;29;20075;-88
2021/05/26 05:14:19;;;;;;;4.72;1.60;;;37.00;20.00;;;;;;4789481;29;20056;-89
2021/05/26 05:16:45;;;;;;;17.92;9.93;;;37.70;18.40;;;;;;4788489;29;20059;-91
2021/05/26 05:21:47;;;;;;;14.80;8.90;;;38.60;17.10;;;;;;5003611;24;20041;-92
2021/05/26 05:24:13;;;;;;;27.50;11.30;;;39.40;16.20;;;;;;4799299;29;20114;-91
2021/05/26 05:26:39;;;;;;;11.48;9.32;;;39.90;14.80;;;;;;4787427;29;20041;-89
2021/05/26 05:29:06;;;;;;;18.02;13.80;;;40.20;14.10;;;;;;4821760;29;20097;-89
2021/05/26 05:31:32;;;;;;;20.08;15.75;;;40.50;13.50;;;;;;4801990;29;20109;-87
2021/05/26 05:33:59;;;;;;;29.73;19.20;;;40.70;13.30;;;;;;4802473;29;20040;-89
2021/05/26 05:36:25;;;;;;;27.15;17.10;;;40.90;12.60;;;;;;4818379;29;20116;-87
2021/05/26 05:38:51;;;;;;;18.30;11.80;;;40.90;11.90;;;;;;4824677;29;20037;-87
2021/05/26 05:41:18;;;;;;;20.42;17.70;;;40.90;12.10;;;;;;4823676;29;20033;-86
2021/05/26 05:43:44;;;;;;;46.67;40.25;;;40.70;12.50;;;;;;4824711;29;20461;-90
2021/05/26 05:46:11;;;;;;;27.42;21.92;;;40.90;12.70;;;;;;4823453;29;20061;-88
2021/05/26 05:48:38;;;;;;;22.77;17.73;;;41.20;12.40;;;;;;4821850;29;20038;-88
2021/05/26 05:51:04;;;;;;;13.23;11.23;;;41.50;11.50;;;;;;4791789;29;20061;-89
2021/05/26 05:53:31;;;;;;;16.83;14.27;;;41.60;11.50;;;;;;4791473;29;20120;-91
2021/05/26 05:55:59;;;;;;;21.77;14.70;;;41.70;11.30;;;;;;4802476;29;20037;-89
2021/05/26 05:58:26;;;;;;;19.70;16.70;;;42.10;11.00;;;;;;4803927;29;20076;-88
2021/05/26 06:00:52;;;;;;;16.10;12.90;;;42.50;10.80;;;;;;4839378;29;20505;-89
2021/05/26 06:03:18;;;;;;;47.33;34.88;;;42.80;10.40;;;;;;4823173;29;20134;-89
2021/05/26 06:05:45;;;;;;;9.57;4.97;;;42.60;10.50;;;;;;4824533;29;20038;-90
2021/05/26 06:08:11;;;;;;;36.15;11.98;;;42.60;10.10;;;;;;4807018;29;20052;-90
2021/05/26 06:10:37;;;;;;;17.65;3.50;;;42.20;10.10;;;;;;4804731;29;20130;-90
2021/05/26 06:13:07;;;;;;;6.43;2.40;;;42.00;10.60;;;;;;4817301;29;20065;-86
2021/05/26 06:15:35;;;;;;;2.97;1.70;;;42.20;10.30;;;;;;4802901;29;20135;-88
2021/05/26 06:18:01;;;;;;;3.60;1.65;;;42.70;9.20;;;;;;4827852;29;20072;-85
2021/05/26 06:20:28;;;;;;;6.43;2.13;;;43.10;8.70;;;;;;4843234;29;20049;-87
2021/05/26 06:22:54;;;;;;;24.10;2.35;;;43.40;8.10;;;;;;4811627;29;20056;-88
2021/05/26 06:25:20;;;;;;;8.25;1.92;;;43.30;7.40;;;;;;4821854;29;20053;-88
2021/05/26 06:27:46;;;;;;;11.13;1.58;;;43.30;7.50;;;;;;4821764;29;20097;-89
2021/05/26 06:30:13;;;;;;;3.00;1.52;;;43.50;7.20;;;;;;4804517;29;20048;-88
2021/05/26 06:32:40;;;;;;;2.10;1.48;;;43.80;7.10;;;;;;4820429;29;20102;-87
2021/05/26 06:35:07;;;;;;;1.52;1.40;;;44.10;7.10;;;;;;4821441;29;20037;-88
2021/05/26 06:37:33;;;;;;;9.25;2.05;;;44.30;6.20;;;;;;4820536;29;20053;-87
2021/05/26 06:39:59;;;;;;;3.40;1.15;;;44.50;6.00;;;;;;4835733;29;20124;-87
2021/05/26 06:42:26;;;;;;;2.65;1.40;;;44.60;5.70;;;;;;4819620;29;20481;-88
2021/05/26 06:44:52;;;;;;;6.20;1.38;;;44.40;5.50;;;;;;4806917;29;20048;-89
2021/05/26 06:47:18;;;;;;;2.88;1.58;;;44.20;5.90;;;;;;4833804;29;20056;-89
2021/05/26 06:49:45;;;;;;;2.53;1.38;;;44.20;6.10;;;;;;4817816;29;20045;-87
2021/05/26 06:52:11;;;;;;;3.85;1.50;;;44.50;6.10;;;;;;4839035;29;20071;-88
2021/05/26 06:54:38;;;;;;;2.58;1.40;;;44.90;5.70;;;;;;4820400;29;20049;-89
2021/05/26 06:57:04;;;;;;;5.03;1.90;;;45.20;5.30;;;;;;4834620;29;20037;-88
2021/05/26 06:59:30;;;;;;;1.20;1.13;;;45.20;5.40;;;;;;4834231;29;20089;-88
2021/05/26 07:01:57;;;;;;;3.38;1.45;;;45.30;5.40;;;;;;4833122;29;20074;-89
2021/05/26 07:04:24;;;;;;;1.60;1.50;;;45.20;5.60;;;;;;4819202;29;20053;-89
2021/05/26 07:06:50;;;;;;;4.22;1.67;;;45.40;5.50;;;;;;4818834;29;20048;-87
2021/05/26 07:09:16;;;;;;;3.00;1.40;;;45.40;5.60;;;;;;4804201;29;20571;-89
2021/05/26 07:11:42;;;;;;;1.73;1.40;;;45.60;5.60;;;;;;4821242;29;20041;-90
2021/05/26 07:14:09;;;;;;;4.38;1.40;;;45.80;5.30;;;;;;4820358;29;20525;-89
2021/05/26 07:16:35;;;;;;;1.80;1.42;;;46.00;4.90;;;;;;4805271;29;20124;-88
2021/05/26 07:19:01;;;;;;;6.15;1.70;;;46.30;4.90;;;;;;4790382;29;20041;-90
2021/05/26 07:21:27;;;;;;;7.85;1.80;;;46.80;4.90;;;;;;4802397;29;20045;-90
2021/05/26 07:23:57;;;;;;;5.95;1.70;;;47.30;4.70;;;;;;4801846;29;20068;-89
2021/05/26 07:26:23;;;;;;;4.93;1.45;;;47.80;4.20;;;;;;4802893;29;20037;-89
2021/05/26 07:28:49;;;;;;;3.95;2.10;;;48.00;3.90;;;;;;4816296;29;20045;-89
2021/05/26 07:31:16;;;;;;;4.38;1.75;;;47.90;3.90;;;;;;4816455;29;20041;-89
2021/05/26 07:33:42;;;;;;;4.80;1.65;;;47.80;3.80;;;;;;4786617;29;20041;-89
2021/05/26 07:36:09;;;;;;;22.80;2.25;;;47.90;3.60;;;;;;4817952;29;20045;-90
2021/05/26 07:38:35;;;;;;;7.85;1.77;;;48.20;3.40;;;;;;4800508;29;20065;-88
2021/05/26 07:41:02;;;;;;;4.15;1.60;;;48.00;3.30;;;;;;4815965;29;20041;-89
2021/05/26 07:43:31;;;;;;;4.90;1.52;;;47.80;3.50;;;;;;4814961;29;20542;-87
2021/05/26 07:45:57;;;;;;;3.75;1.67;;;47.80;3.80;;;;;;4816144;29;20086;-89
2021/05/26 07:48:23;;;;;;;1.85;1.75;;;47.70;3.70;;;;;;4816863;29;20053;-87
2021/05/26 07:50:50;;;;;;;4.05;1.40;;;46.90;4.10;;;;;;4815161;29;20137;-87
2021/05/26 07:53:16;;;;;;;2.10;1.90;;;46.70;4.40;;;;;;4815306;29;20053;-87
2021/05/26 07:55:42;;;;;;;4.43;1.52;;;47.00;4.20;;;;;;4800034;29;20046;-87
2021/05/26 07:58:08;;;;;;;8.30;5.15;;;47.60;4.10;;;;;;4815989;29;20501;-89
2021/05/26 08:00:35;;;;;;;2.83;2.38;;;47.70;3.90;;;;;;4800200;29;20038;-87
2021/05/26 08:03:01;;;;;;;5.95;1.60;;;47.40;4.00;;;;;;4801372;29;20110;-91
2021/05/26 08:05:28;;;;;;;4.88;1.73;;;46.00;4.50;;;;;;4801337;29;20509;-90
2021/05/26 08:07:54;;;;;;;2.58;1.30;;;45.50;5.10;;;;;;4816734;29;20074;-91
2021/05/26 08:10:20;;;;;;;2.20;1.50;;;45.70;4.70;;;;;;4816611;29;20084;-89
2021/05/26 08:12:46;;;;;;;14.82;2.42;;;46.20;4.60;;;;;;4801000;29;20046;-89
2021/05/26 08:15:13;;;;;;;7.47;1.73;;;46.00;4.50;;;;;;4816042;29;20045;-87
2021/05/26 08:17:40;;;;;;;6.55;1.55;;;45.70;4.80;;;;;;4817569;29;20582;-91
2021/05/26 08:20:07;;;;;;;4.60;1.88;;;45.60;4.90;;;;;;4786245;29;20117;-89
2021/05/26 08:22:34;;;;;;;2.83;1.48;;;46.20;4.80;;;;;;4787824;29;20064;-89
2021/05/26 08:25:00;;;;;;;2.40;1.90;;;46.10;4.50;;;;;;4804319;29;20048;-90
2021/05/26 08:27:26;;;;;;;5.32;1.60;;;45.90;4.50;;;;;;4818633;29;20271;-90
2021/05/26 08:29:55;;;;;;;5.00;1.33;;;46.20;4.50;;;;;;4804152;29;20513;-90
2021/05/26 08:32:22;;;;;;;3.28;2.20;;;46.70;4.30;;;;;;4788449;29;20071;-88
2021/05/26 08:34:49;;;;;;;7.32;1.52;;;47.40;3.90;;;;;;4823984;29;20041;-87
2021/05/26 08:37:18;;;;;;;1.73;1.63;;;48.20;3.30;;;;;;4834276;29;20522;-90
2021/05/26 08:39:45;;;;;;;4.28;1.70;;;48.60;3.00;;;;;;4788995;29;20041;-88
2021/05/26 08:42:12;;;;;;;5.43;2.55;;;48.60;2.80;;;;;;4787971;29;20511;-89
2021/05/26 08:44:38;;;;;;;2.97;1.95;;;48.60;3.90;;;;;;4788658;29;20045;-87
2021/05/26 08:47:04;;;;;;;3.03;2.05;;;48.50;2.80;;;;;;4818267;29;20079;-87
2021/05/26 08:49:31;;;;;;;4.32;1.52;;;48.70;2.60;;;;;;4820856;29;20033;-88
2021/05/26 08:52:04;;;;;;;2.53;1.20;;;48.90;2.50;;;;;;4806008;29;20085;-89
2021/05/26 08:54:31;;;;;;;5.65;1.45;;;49.10;2.10;;;;;;4805174;29;20045;-89
2021/05/26 08:56:58;;;;;;;5.03;1.88;;;49.20;2.20;;;;;;4818673;29;20045;-91
2021/05/26 08:59:24;;;;;;;2.88;1.63;;;49.00;2.20;;;;;;4788448;29;20135;-88
2021/05/26 09:01:51;;;;;;;2.70;1.15;;;48.70;2.20;;;;;;4818815;29;20037;-87
2021/05/26 09:04:34;;;;;;;2.45;1.50;;;48.30;2.20;;;;;;4817728;29;20552;-90
2021/05/26 09:07:18;;;;;;;5.47;1.50;;;48.00;2.60;;;;;;4821710;29;20116;-88
2021/05/26 09:09:55;;;;;;;6.10;1.75;;;47.90;2.50;;;;;;4797270;29;20146;-90
2021/05/26 09:12:26;;;;;;;5.55;1.60;;;47.90;2.60;;;;;;4808087;29;20061;-93
2021/05/26 09:14:53;;;;;;;3.55;1.60;;;47.90;2.50;;;;;;4821334;29;20051;-92
2021/05/26 09:17:22;;;;;;;1.73;1.20;;;47.90;2.70;;;;;;4805185;29;20055;-94
2021/05/26 09:19:49;;;;;;;3.95;1.70;;;47.90;2.60;;;;;;4795116;29;20049;-96
2021/05/26 09:22:23;;;;;;;8.98;1.85;;;47.70;2.70;;;;;;4796020;29;20053;-95
2021/05/26 09:24:49;;;;;;;3.50;1.63;;;47.60;3.00;;;;;;4830666;29;20056;-96
2021/05/26 09:27:16;;;;;;;3.78;1.08;;;47.70;2.70;;;;;;4827277;29;20049;-95
2021/05/26 09:29:45;;;;;;;2.83;1.38;;;47.80;2.70;;;;;;4829583;29;20532;-96
2021/05/26 09:32:26;;;;;;;5.68;1.70;;;48.00;3.50;;;;;;4824324;29;20109;-94
2021/05/26 09:34:54;;;;;;;41.13;3.58;;;48.20;2.30;;;;;;4823994;29;20045;-94
2021/05/26 09:37:32;;;;;;;5.07;1.85;;;48.30;2.20;;;;;;4779928;29;20069;-92
2021/05/26 09:40:11;;;;;;;2.10;1.42;;;48.50;2.10;;;;;;4796070;29;20086;-93
2021/05/26 09:42:38;;;;;;;4.20;2.00;;;48.20;2.00;;;;;;4823916;29;20104;-94
2021/05/26 09:45:27;;;;;;;6.97;1.38;;;47.60;2.30;;;;;;4807477;29;20057;-94
2021/05/26 09:47:55;;;;;;;4.53;1.52;;;47.10;2.70;;;;;;4824265;29;20113;-96
2021/05/26 09:58:22;;;;;;;4.00;1.75;;;42.10;5.50;;;;;;4348867;32;20343;-92
2021/05/26 10:00:51;;;;;;;4.88;2.05;;;40.60;6.40;;;;;;5047240;28;20056;-93
2021/05/26 10:03:18;;;;;;;4.47;2.80;;;39.20;7.50;;;;;;5046225;28;20023;-93
2021/05/26 10:05:44;;;;;;;10.25;1.70;;;38.10;8.20;;;;;;5039194;28;20109;-92
2021/05/26 10:08:13;;;;;;;30.05;2.53;;;37.10;9.20;;;;;;5043997;28;20112;-93
2021/05/26 10:10:41;;;;;;;17.75;2.22;;;36.20;9.90;;;;;;5025422;28;20062;-94
2021/05/26 10:13:10;;;;;;;15.10;2.60;;;35.50;10.80;;;;;;5042117;28;20028;-92
2021/05/26 10:15:37;;;;;;;6.13;1.90;;;34.90;11.30;;;;;;5012742;28;20169;-91
2021/05/26 10:18:03;;;;;;;7.95;1.58;;;34.40;11.50;;;;;;5048058;28;20059;-94
2021/05/26 10:20:42;;;;;;;17.13;13.80;;;33.90;11.70;;;;;;5042198;28;20033;-92
2021/05/26 10:23:09;;;;;;;4.70;1.92;;;33.40;12.30;;;;;;5025880;28;20097;-92
2021/05/26 10:25:41;;;;;;;3.08;2.10;;;33.00;12.90;;;;;;5059838;28;20127;-91
2021/05/26 10:28:07;;;;;;;4.75;1.35;;;32.70;13.20;;;;;;5040751;28;20386;-92
2021/05/26 10:30:47;;;;;;;3.15;1.80;;;32.40;13.30;;;;;;4986701;28;20063;-93
2021/05/26 10:33:13;;;;;;;6.57;2.33;;;32.20;13.50;;;;;;5030693;28;20063;-93
2021/05/26 10:35:57;;;;;;;4.30;1.40;;;32.10;13.90;;;;;;5029536;28;20100;-95
2021/05/26 10:38:25;;;;;;;2.90;1.73;;;32.00;13.90;;;;;;5033076;28;20387;-94
2021/05/26 10:40:53;;;;;;;4.63;1.80;;;31.80;14.10;;;;;;5046651;28;20059;-95
2021/05/26 10:45:59;;;;;;;5.93;1.58;;;31.60;14.40;;;;;;4400745;32;20385;-92
2021/05/26 10:48:43;;;;;;;5.78;1.80;;;31.50;14.80;;;;;;5090217;28;20050;-95
2021/05/26 10:51:13;;;;;;;1.70;1.60;;;31.40;14.70;;;;;;5084486;28;20606;-95
2021/05/26 10:53:41;;;;;;;2.83;1.60;;;31.30;14.80;;;;;;5073353;28;20482;-94
2021/05/26 10:56:28;;;;;;;2.95;1.35;;;31.20;14.90;;;;;;5085776;28;20579;-92
2021/05/26 10:59:14;;;;;;;4.63;1.90;;;31.10;14.90;;;;;;5063315;28;20028;-94
2021/05/26 11:02:07;;;;;;;6.25;1.50;;;31.10;15.10;;;;;;5037669;28;20043;-92
2021/05/26 11:05:36;;;;;;;4.30;1.52;;;31.10;15.10;;;;;;5074193;28;20528;-95
2021/05/26 11:08:53;;;;;;;2.67;1.50;;;31.10;15.20;;;;;;5060406;28;20515;-94
2021/05/26 11:11:22;;;;;;;7.63;2.17;;;31.00;15.10;;;;;;5064958;28;20052;-93
2021/05/26 11:14:08;;;;;;;3.25;2.00;;;31.00;15.10;;;;;;5066705;28;20093;-94
2021/05/26 11:16:40;;;;;;;7.35;1.92;;;30.90;15.20;;;;;;5063246;28;20126;-96
2021/05/26 11:19:22;;;;;;;4.57;1.85;;;30.80;15.50;;;;;;5068306;28;20047;-94
2021/05/26 11:22:12;;;;;;;2.15;1.42;;;30.80;15.60;;;;;;5070540;28;20108;-95
2021/05/26 11:24:41;;;;;;;6.82;1.85;;;30.70;15.70;;;;;;5084112;28;20057;-91
2021/05/26 11:27:24;;;;;;;3.38;1.60;;;30.60;15.70;;;;;;5053399;28;20035;-96
2021/05/26 11:30:00;;;;;;;4.40;1.40;;;30.40;16.00;;;;;;5053944;28;20533;-93
2021/05/26 11:32:27;;;;;;;1.02;1.02;;;30.20;16.20;;;;;;5067602;28;20028;-93
2021/05/26 11:34:55;;;;;;;3.90;1.33;;;30.10;16.20;;;;;;5071321;28;20100;-95
2021/05/26 11:37:36;;;;;;;4.18;1.45;;;30.10;16.30;;;;;;5050387;28;20032;-94
2021/05/26 11:40:15;;;;;;;6.13;1.85;;;30.00;16.40;;;;;;5065180;28;20476;-92
2021/05/26 11:42:42;;;;;;;7.00;1.55;;;30.00;16.40;;;;;;5061111;28;20062;-90
2021/05/26 11:45:10;;;;;;;6.88;1.67;;;30.00;16.30;;;;;;5062963;28;20036;-94
2021/05/26 11:55:29;;;;;;;10.00;1.60;;;30.10;16.70;;;;;;4424019;32;411596;-93
2021/05/26 11:57:56;;;;;;;4.03;1.50;;;30.10;16.80;;;;;;5151167;22;20049;-92
2021/05/26 12:00:28;;;;;;;5.80;1.55;;;30.00;16.70;;;;;;5006707;28;20535;-93
2021/05/26 12:03:05;;;;;;;5.63;1.63;;;30.00;16.80;;;;;;4989456;28;20041;-94
2021/05/26 12:05:46;;;;;;;9.75;1.95;;;29.90;17.00;;;;;;4991132;28;20041;-94
2021/05/26 12:08:17;;;;;;;4.38;1.50;;;29.80;17.20;;;;;;5006934;28;20531;-93
2021/05/26 12:10:57;;;;;;;3.60;1.92;;;29.80;17.20;;;;;;4991025;28;20045;-93
2021/05/26 12:13:32;;;;;;;2.47;1.50;;;29.80;17.30;;;;;;5000704;28;20574;-93
2021/05/26 12:16:01;;;;;;;13.65;2.10;;;29.70;17.20;;;;;;5010994;28;20037;-93
2021/05/26 12:18:28;;;;;;;4.20;1.80;;;29.70;17.30;;;;;;4957402;28;20212;-93
2021/05/26 12:20:55;;;;;;;12.38;2.03;;;29.60;17.40;;;;;;5003260;28;20037;-93
2021/05/26 12:23:43;;;;;;;12.52;2.17;;;29.60;17.50;;;;;;4974651;28;20052;-92
2021/05/26 12:26:33;;;;;;;14.38;2.33;;;29.50;17.40;;;;;;4988455;28;20049;-92
2021/05/26 12:29:10;;;;;;;2.83;1.73;;;29.40;17.60;;;;;;4990163;28;20048;-90
2021/05/26 12:31:38;;;;;;;7.38;2.03;;;29.20;17.70;;;;;;4974151;28;20135;-92
2021/05/26 12:34:19;;;;;;;5.75;1.52;;;29.10;17.90;;;;;;5006528;28;20036;-91
2021/05/26 12:36:53;;;;;;;6.20;1.70;;;28.90;18.00;;;;;;4991861;28;20041;-90
2021/05/26 12:39:20;;;;;;;9.60;1.88;;;28.70;18.20;;;;;;4991987;28;20037;-93
2021/05/26 12:41:48;;;;;;;3.67;1.58;;;28.70;18.30;;;;;;4974560;28;20539;-94
2021/05/26 12:44:14;;;;;;;4.25;1.75;;;28.50;18.50;;;;;;5023418;28;20037;-92
2021/05/26 12:46:51;;;;;;;5.80;1.95;;;28.40;18.50;;;;;;5025114;28;20045;-93
2021/05/26 12:52:01;;;;;;;3.33;1.45;;;28.10;18.70;;;;;;5028535;28;20045;-93
2021/05/26 12:54:27;;;;;;;5.18;1.60;;;27.90;18.80;;;;;;4992177;28;20068;-91
2021/05/26 12:57:16;;;;;;;7.70;1.83;;;27.80;19.10;;;;;;4992290;28;20143;-92
2021/05/26 12:59:43;;;;;;;5.40;2.00;;;27.70;19.10;;;;;;5008323;28;20072;-89
2021/05/26 13:02:14;;;;;;;6.38;1.80;;;27.70;19.20;;;;;;5003554;28;20048;-96
2021/05/26 13:04:51;;;;;;;6.70;1.95;;;27.70;19.20;;;;;;5009807;28;20041;-94
2021/05/26 13:07:50;;;;;;;2.28;1.40;;;27.70;18.90;;;;;;4982355;28;20496;-96
2021/05/26 13:10:35;;;;;;;7.57;1.60;;;27.70;18.50;;;;;;4998718;28;20098;-92
2021/05/26 13:18:33;;;;;;;6.13;1.70;;;27.60;17.50;;;;;;4387183;32;406863;-92
2021/05/26 13:21:04;;;;;;;6.13;1.48;;;27.50;17.70;;;;;;5077225;28;20042;-94
2021/05/26 13:23:30;;;;;;;2.38;1.20;;;27.50;17.60;;;;;;5048046;28;20050;-94
2021/05/26 13:25:57;;;;;;;3.30;2.50;;;27.40;17.40;;;;;;5047333;28;20035;-94
2021/05/26 13:28:24;;;;;;;;;;;27.30;17.60;;;;;;5063083;28;20433;-92
2021/05/26 13:30:53;;;;;;;8.07;1.88;;;27.20;17.80;;;;;;5043475;28;19938;-92
2021/05/26 13:33:19;;;;;;;2.53;1.13;;;27.20;18.20;;;;;;5058164;28;20042;-94
2021/05/26 13:35:46;;;;;;;7.45;1.30;;;27.10;18.50;;;;;;5085856;28;20043;-96
2021/05/26 13:38:14;;;;;;;5.20;1.27;;;27.10;18.80;;;;;;5086506;28;20031;-90
2021/05/26 13:40:43;;;;;;;3.13;1.40;;;27.00;19.00;;;;;;5069314;28;20031;-91
2021/05/26 13:43:10;;;;;;;2.15;1.13;;;27.00;18.90;;;;;;5081723;28;20031;-88
2021/05/26 13:45:37;;;;;;;3.38;1.17;;;26.90;18.70;;;;;;5077223;28;20043;-93
2021/05/26 13:48:07;;;;;;;1.38;1.20;;;26.90;18.70;;;;;;5052174;28;20027;-94
2021/05/26 13:50:40;;;;;;;4.60;1.48;;;26.80;18.70;;;;;;5053795;28;20050;-93
2021/05/26 13:53:08;;;;;;;3.08;1.35;;;26.80;18.80;;;;;;5054264;28;20526;-93